ADDS METAR Data INFO
IDs: Format: Raw Decoded Include TAF

Data at: 2259 UTC 16 Jan 2018

KBNW 162255Z AUTO 29007G12KT 9SM CLR M16/M19 A3064 RMK AO2
KBNW 162235Z AUTO 30010KT 9SM FEW006 M16/M19 A3064 RMK AO2
KBNW 162215Z AUTO 30010KT 9SM CLR M16/M19 A3064 RMK AO2
KBNW 162155Z AUTO 30013KT 9SM CLR M16/M19 A3064 RMK AO2
KBNW 162135Z AUTO 30011KT 9SM FEW005 M16/M19 A3064 RMK AO2
KBNW 162115Z AUTO 29011KT 9SM CLR M16/M19 A3064 RMK AO2
KBNW 162055Z AUTO 29009KT 8SM SCT012 M15/M19 A3064 RMK AO2
KBNW 162035Z AUTO 30010KT 7SM BKN013 M15/M19 A3065 RMK AO2
KBNW 162015Z AUTO 31009KT 7SM SCT013 M15/M18 A3065 RMK AO2
KBNW 161955Z AUTO 31009KT 7SM BKN013 M15/M18 A3065 RMK AO2
KBNW 161935Z AUTO 29011KT 7SM OVC013 M15/M18 A3065 RMK AO2
KBNW 161915Z AUTO 31008KT 7SM BKN013 M15/M18 A3065 RMK AO2
KBNW 161855Z AUTO 31010KT 7SM OVC013 M15/M18 A3065 RMK AO2
KBNW 161835Z AUTO 32009KT 7SM OVC013 M15/M18 A3065 RMK AO2
KBNW 161815Z AUTO 32007KT 5SM -SN OVC012 M15/M18 A3066 RMK AO2
KBNW 161755Z AUTO 32009KT 5SM HZ OVC010 M16/M19 A3067 RMK AO2
KBNW 161735Z AUTO 33011KT 6SM HZ OVC010 M16/M19 A3068 RMK AO2
KBNW 161715Z AUTO 34013KT 6SM HZ OVC010 M17/M20 A3068 RMK AO2
KBNW 161655Z AUTO 33013KT 6SM HZ OVC011 M17/M20 A3069 RMK AO2
KBNW 161635Z AUTO 33011G16KT 5SM HZ OVC011 M18/M21 A3069 RMK AO2
KBNW 161615Z AUTO 33010KT 5SM HZ OVC013 M18/M21 A3069 RMK AO2
KBNW 161555Z AUTO 32011KT 4SM HZ BKN015 OVC022 M18/M21 A3068 RMK AO2
KBNW 161535Z AUTO 32011KT 2 1/2SM -SN SCT017 BKN022 OVC030 M19/M22 A3067 RMK AO2
KBNW 161515Z AUTO 32013G18KT 3SM HZ FEW013 SCT030 BKN036 M19/M22 A3067 RMK AO2
KBNW 161455Z AUTO 32011KT 3SM HZ FEW004 SCT028 BKN038 M19/M22 A3066 RMK AO2
KBNW 161435Z AUTO 32012KT 3SM -SN FEW014 SCT027 BKN033 M19/M22 A3065 RMK AO2
KBNW 161415Z AUTO 32014KT 4SM -SN SCT014 BKN018 OVC040 M19/M22 A3065 RMK AO2
KBNW 161355Z AUTO 32013KT 4SM -SN BKN013 OVC019 M20/M23 A3064 RMK AO2
KBNW 161335Z AUTO 32012G19KT 1 1/2SM -SN BKN013 OVC020 M20/M23 A3064 RMK AO2
KBNW 161315Z AUTO 31010G16KT 3SM -SN FEW014 BKN021 OVC027 M20/M23 A3064 RMK AO2
KBNW 161255Z AUTO 31012KT 4SM -SN FEW006 FEW018 OVC027 M20/M24 A3063 RMK AO2
KBNW 161235Z AUTO 8SM -SN SCT007 BKN021 OVC029 M20/M24 A3063 RMK AO2
KBNW 161215Z AUTO 31013KT 9SM FEW006 OVC019 M20/M24 A3063 RMK AO2
KBNW 161155Z AUTO 31014G20KT 10SM OVC017 M21/M24 A3062 RMK AO2
KBNW 161135Z AUTO 32014KT 10SM -SN FEW007 BKN018 OVC030 M21/M24 A3062 RMK AO2
KBNW 161115Z AUTO 31012G19KT 4SM -SN SCT007 BKN017 OVC030 M21/M24 A3062 RMK AO2
KBNW 161055Z AUTO 31016KT 7SM SCT006 OVC012 M21/M25 A3062 RMK AO2
KBNW 161035Z AUTO 33014KT 10SM SCT008 OVC013 M21/M25 A3061 RMK AO2
KBNW 161015Z AUTO 32012G17KT 9SM FEW005 SCT009 OVC016 M21/M25 A3061 RMK AO2
KBNW 160955Z AUTO 31013KT 7SM BKN007 OVC014 M21/M24 A3060 RMK AO2
KBNW 160935Z AUTO 31011G19KT 8SM -SN SCT008 OVC014 M21/M25 A3059 RMK AO2
KBNW 160915Z AUTO 33014G20KT 6SM -SN BKN007 OVC014 M21/M24 A3059 RMK AO2
KBNW 160855Z AUTO 32016G21KT 10SM BKN007 OVC026 M21/M24 A3059 RMK AO2
KBNW 160835Z AUTO 31015G22KT 9SM -SN FEW008 FEW019 OVC026 M21/M24 A3058 RMK AO2
KBNW 160815Z AUTO 32014KT 9SM FEW006 SCT014 OVC026 M22/M25 A3058 RMK AO2
KBNW 160755Z AUTO 31013G19KT 9SM BKN006 BKN010 OVC014 M22/M25 A3057 RMK AO2
KBNW 160735Z AUTO 31016KT 6SM HZ BKN006 BKN019 OVC032 M22/M25 A3057 RMK AO2
KBNW 160715Z AUTO 31012G18KT 9SM OVC007 M22/M26 A3057 RMK AO2
KBNW 160655Z AUTO 31013G19KT 10SM OVC007 M22/M26 A3058 RMK AO2
KBNW 160635Z AUTO 31012G18KT 10SM BKN007 OVC010 M22/M26 A3058 RMK AO2
KBNW 160615Z AUTO 31013KT 10SM OVC008 M22/M26 A3059 RMK AO2
KBNW 160555Z AUTO 32012KT 10SM OVC008 M22/M26 A3058 RMK AO2
KBNW 160535Z AUTO 31013G19KT 10SM OVC009 M22/M26 A3058 RMK AO2
KBNW 160515Z AUTO 31011G18KT 6SM -SN BKN010 OVC016 M22/M26 A3059 RMK AO2
KBNW 160455Z AUTO 31012G22KT 4SM -SN M22/M26 A3058 RMK AO2
KBNW 160435Z AUTO 10SM A3057 RMK AO2
KBNW 160415Z AUTO 31014G20KT 10SM BKN012 OVC021 M22/M26 A3057 RMK AO2
KBNW 160355Z AUTO 32015G24KT 10SM OVC011 M22/M26 A3056 RMK AO2
KBNW 160335Z AUTO 31011G22KT 10SM OVC010 M21/M26 A3056 RMK AO2
KBNW 160315Z AUTO 31016G21KT 10SM OVC010 M21/M25 A3055 RMK AO2
KBNW 160255Z AUTO 32017G24KT 10SM OVC011 M21/M25 A3056 RMK AO2
KBNW 160235Z AUTO 33016G22KT 10SM OVC011 M21/M25 A3056 RMK AO2
KBNW 160215Z AUTO 32016G24KT 10SM OVC011 M20/M25 A3055 RMK AO2
KBNW 160155Z AUTO 32018G23KT 10SM OVC013 M20/M24 A3054 RMK AO2
KBNW 160135Z AUTO 32016G25KT 10SM OVC012 M20/M24 A3054 RMK AO2
KBNW 160115Z AUTO 32015KT 10SM OVC012 M20/M24 A3054 RMK AO2
KBNW 160055Z AUTO 31017KT 10SM OVC012 M20/M24 A3053 RMK AO2
KBNW 160035Z AUTO 32017G28KT 8SM FEW008 OVC014 M19/M23 A3052 RMK AO2
KBNW 160015Z AUTO 31014G20KT 3SM HZ BKN009 OVC013 M19/M22 A3052 RMK AO2
KBNW 152355Z AUTO 32014KT 3SM -SN BKN009 OVC013 M19/M22 A3052 RMK AO2
KBNW 152335Z AUTO 33017G26KT 8SM FEW006 OVC013 M19/M23 A3051 RMK AO2
KBNW 152315Z AUTO 33012KT 4SM HZ SCT008 OVC013 M19/M22 A3051 RMK AO2
KBNW 152255Z AUTO 32017G26KT 4SM HZ FEW009 OVC014 M19/M22 A3049 RMK AO2
KBNW 152235Z AUTO 32014G24KT 2 1/2SM -SN OVC013 M18/M22 A3049 RMK AO2
KBNW 152215Z AUTO 32019G24KT 4SM HZ BKN014 OVC018 M18/M22 A3048 RMK AO2
KBNW 152155Z AUTO 32017G27KT 6SM HZ OVC015 M18/M23 A3047 RMK AO2
KBNW 152135Z AUTO 32016G27KT 4SM HZ OVC014 M18/M22 A3046 RMK AO2
KBNW 152115Z AUTO 31019G29KT 3SM HZ BKN014 OVC019 M18/M22 A3045 RMK AO2
KBNW 152055Z AUTO 30020KT 2SM HZ FEW010 OVC015 M18/M22 A3044 RMK AO2 VIS 1 1/4V4
KBNW 152035Z AUTO 30019G28KT 2 1/2SM HZ BKN016 M17/M22 A3043 RMK AO2 VIS 1 1/2V5
KBNW 152015Z AUTO 31016G28KT 4SM HZ FEW010 OVC016 M18/M22 A3043 RMK AO2
KBNW 151955Z AUTO 30016G27KT 4SM HZ OVC016 M18/M22 A3043 RMK AO2
KBNW 151935Z AUTO 31016G29KT 2 1/2SM -SN FEW006 BKN015 BKN019 M18/M22 A3042 RMK AO2 VIS 1 3/4V4
KBNW 151915Z AUTO 31018G25KT 2 1/2SM HZ OVC015 M18/M22 A3042 RMK AO2 VIS 1 3/4V4
KBNW 151855Z AUTO 32018G27KT 2SM HZ OVC015 M18/M22 A3042 RMK AO2
KBNW 151835Z AUTO 31019G25KT 2 1/2SM HZ FEW010 OVC014 M18/M22 A3042 RMK AO2
KBNW 151815Z AUTO 31019G26KT 1 1/2SM -SN SCT008 OVC015 M18/M21 A3042 RMK AO2
KBNW 151755Z AUTO 32018G30KT 3SM HZ FEW009 OVC014 M18/M22 A3042 RMK AO2
KBNW 151735Z AUTO 31016G26KT 2 1/2SM HZ OVC014 M18/M22 A3043 RMK AO2
KBNW 151715Z AUTO 31023G30KT 2 1/2SM HZ OVC014 M18/M22 A3042 RMK AO2
KBNW 151655Z AUTO 31016G30KT 2 1/2SM HZ FEW008 OVC014 M19/M22 A3042 RMK AO2
KBNW 151635Z AUTO 31019G27KT 2SM -SN FEW009 OVC013 M19/M22 A3042 RMK AO2
KBNW 151615Z AUTO 31022G29KT 1 1/2SM HZ SCT009 OVC014 M19/M22 A3041 RMK AO2
KBNW 151555Z AUTO 32017G26KT 1 1/4SM HZ SCT009 OVC015 M19/M22 A3040 RMK AO2
KBNW 151535Z AUTO 31020G27KT 1 1/2SM HZ BKN010 OVC015 M19/M22 A3039 RMK AO2
KBNW 151515Z AUTO 31019G25KT 1SM HZ BKN009 OVC015 M19/M22 A3038 RMK AO2
KBNW 151455Z AUTO 32021G29KT 1 1/4SM -SN OVC015 M19/M22 A3038 RMK AO2
KBNW 151435Z AUTO 32022G28KT 1SM -SN OVC014 M19/M22 A3036 RMK AO2
KBNW 151415Z AUTO 31013G22KT 3SM -SN BKN012 BKN017 OVC037 M19/M22 A3036 RMK AO2
KBNW 151355Z AUTO 30017G27KT 4SM HZ BKN014 OVC036 M19/M23 A3035 RMK AO2
KBNW 151335Z AUTO 32018G32KT 3SM HZ SCT009 OVC014 M19/M23 A3034 RMK AO2
KBNW 151315Z AUTO 31019G29KT 3SM HZ BKN009 OVC013 M19/M22 A3033 RMK AO2
KBNW 151255Z AUTO 31019G31KT 3SM -SN BKN009 OVC013 M18/M21 A3031 RMK AO2
KBNW 151235Z AUTO 31020G26KT 6SM HZ OVC012 M18/M21 A3030 RMK AO2
KBNW 151215Z AUTO 31017G24KT 8SM OVC013 M17/M21 A3030 RMK AO2
KBNW 151155Z AUTO 31017G27KT 9SM OVC013 M17/M21 A3029 RMK AO2
KBNW 151135Z AUTO 31021G27KT 7SM OVC012 M17/M21 A3027 RMK AO2
KBNW 151115Z AUTO 31021G31KT 6SM HZ OVC012 M17/M20 A3027 RMK AO2